Hlavní strana
METAR-TAF:

METAR-TAF

Letiště :

Vientiane, Laos

zeměpisná šířka: 17-57N, zeměpisná délka: 102-34E, výška: 171 m

Aktuální stav počasí

Zpráva byla vytvořena před 24 minutami, v 23:00 UTC
Severní vítr 2 kt
Teplota 24°C
Vlhkost vzduchu 100%
Tlak 1012 hPa
Viditelnost: 5000 m
Polojasno ve výšce 10000 ft
kouřmo

METAR: VLVT 152300Z 36002KT 5000 BR SCT100 24/24 Q1012 NOSIG

Čas: 06:24 (23:24 UTC)

Předpověď počasí

Zpráva byla vytvořena před 6 hodinami a 24 minutami, v 17:00 UTC
Předpověď platná od 15 v 18 UTC do 16 v 18 UTC
Jihozápadní vítr 4 kt
Viditelnost: 3000 m
Skoro jasno ve výšce 5000 ft
Skoro jasno ve výšce 10000 ft
kouřmo
Dočasný
od 16 v 00 UTC do 16 v 05 UTC
Viditelnost: 5000 m
Skoro jasno ve výšce 5000 ft
Polojasno ve výšce 20000 ft
kouřmo

TAF: VLVT 151700Z 1518/1618 22004KT 3000 BR FEW050 FEW100 TEMPO 1600/1605 5000 BR FEW050 SCT200

Stav a předpovědi počasí z více než 4 000 letišť (zprávy METAR a TAF).

Červené a žluté tečky na mapě představují dostupné meteorologické stanice.

Když kurzor umístíte na tečku, zobrazí se název stanice.

Pak kliknutím zobrazíte stav a předpověď počasí.

Chcete-li změnit mapu, kliknutím na zelené tlačítko se znaménkem +mapu přiblížíte, kliknutím na zelené tlačítko se znaménkem – mapu oddálíte a kliknutím na zelené šipky přejdete na sousední mapy.


METAR-TAF: